sensor_id;sensor_type;location;lat;lon;timestamp;P1;durP1;ratioP1;P2;durP2;ratioP2
20038;SDS011;21737;42.868;25.320;2022-07-22T00:02:00;7.80;;;4.40;;
20038;SDS011;21737;42.868;25.320;2022-07-22T00:05:02;7.47;;;5.00;;
20038;SDS011;21737;42.868;25.320;2022-07-22T00:08:04;6.87;;;4.90;;
20038;SDS011;21737;42.868;25.320;2022-07-22T00:11:06;6.17;;;4.50;;
20038;SDS011;21737;42.868;25.320;2022-07-22T00:14:08;7.20;;;4.93;;
20038;SDS011;21737;42.868;25.320;2022-07-22T00:17:09;6.50;;;5.07;;
20038;SDS011;21737;42.868;25.320;2022-07-22T00:20:11;7.37;;;4.47;;
20038;SDS011;21737;42.868;25.320;2022-07-22T00:23:13;7.37;;;4.50;;
20038;SDS011;21737;42.868;25.320;2022-07-22T00:26:14;6.20;;;4.37;;
20038;SDS011;21737;42.868;25.320;2022-07-22T00:29:16;6.27;;;4.50;;
20038;SDS011;21737;42.868;25.320;2022-07-22T00:32:18;8.03;;;4.80;;
20038;SDS011;21737;42.868;25.320;2022-07-22T00:35:19;6.57;;;4.67;;
20038;SDS011;21737;42.868;25.320;2022-07-22T00:38:21;9.57;;;5.30;;
20038;SDS011;21737;42.868;25.320;2022-07-22T00:41:22;13.13;;;5.53;;
20038;SDS011;21737;42.868;25.320;2022-07-22T00:44:25;9.13;;;5.43;;
20038;SDS011;21737;42.868;25.320;2022-07-22T00:47:27;7.30;;;5.73;;
20038;SDS011;21737;42.868;25.320;2022-07-22T00:50:28;7.07;;;5.13;;
20038;SDS011;21737;42.868;25.320;2022-07-22T00:53:30;7.10;;;4.90;;
20038;SDS011;21737;42.868;25.320;2022-07-22T00:56:32;9.53;;;5.50;;
20038;SDS011;21737;42.868;25.320;2022-07-22T00:59:33;8.27;;;5.20;;
20038;SDS011;21737;42.868;25.320;2022-07-22T01:02:35;10.97;;;5.30;;
20038;SDS011;21737;42.868;25.320;2022-07-22T01:05:37;8.97;;;5.73;;
20038;SDS011;21737;42.868;25.320;2022-07-22T01:08:39;8.50;;;5.80;;
20038;SDS011;21737;42.868;25.320;2022-07-22T01:11:41;9.77;;;5.90;;
20038;SDS011;21737;42.868;25.320;2022-07-22T01:14:43;8.80;;;5.27;;
20038;SDS011;21737;42.868;25.320;2022-07-22T01:17:45;9.97;;;5.40;;
20038;SDS011;21737;42.868;25.320;2022-07-22T01:20:47;6.97;;;5.40;;
20038;SDS011;21737;42.868;25.320;2022-07-22T01:23:48;11.53;;;5.43;;
20038;SDS011;21737;42.868;25.320;2022-07-22T01:26:51;7.30;;;5.40;;
20038;SDS011;21737;42.868;25.320;2022-07-22T01:29:52;8.77;;;5.40;;
20038;SDS011;21737;42.868;25.320;2022-07-22T01:32:54;10.67;;;5.60;;
20038;SDS011;21737;42.868;25.320;2022-07-22T01:35:56;8.87;;;5.43;;
20038;SDS011;21737;42.868;25.320;2022-07-22T01:38:58;8.63;;;5.83;;
20038;SDS011;21737;42.868;25.320;2022-07-22T01:42:00;10.03;;;5.60;;
20038;SDS011;21737;42.868;25.320;2022-07-22T01:45:03;8.03;;;5.10;;
20038;SDS011;21737;42.868;25.320;2022-07-22T01:48:05;7.00;;;5.53;;
20038;SDS011;21737;42.868;25.320;2022-07-22T01:51:08;11.00;;;5.33;;
20038;SDS011;21737;42.868;25.320;2022-07-22T01:54:12;10.07;;;5.63;;
20038;SDS011;21737;42.868;25.320;2022-07-22T01:57:13;6.70;;;5.37;;
20038;SDS011;21737;42.868;25.320;2022-07-22T02:00:21;12.43;;;5.27;;
20038;SDS011;21737;42.868;25.320;2022-07-22T02:03:22;6.33;;;4.87;;
20038;SDS011;21737;42.868;25.320;2022-07-22T02:06:24;8.80;;;5.40;;
20038;SDS011;21737;42.868;25.320;2022-07-22T02:09:28;9.30;;;5.63;;
20038;SDS011;21737;42.868;25.320;2022-07-22T02:12:31;7.97;;;5.23;;
20038;SDS011;21737;42.868;25.320;2022-07-22T02:15:33;9.23;;;5.40;;
20038;SDS011;21737;42.868;25.320;2022-07-22T02:18:35;6.50;;;4.90;;
20038;SDS011;21737;42.868;25.320;2022-07-22T02:21:37;8.20;;;5.27;;
20038;SDS011;21737;42.868;25.320;2022-07-22T02:24:39;7.30;;;5.40;;
20038;SDS011;21737;42.868;25.320;2022-07-22T02:27:41;9.10;;;5.47;;
20038;SDS011;21737;42.868;25.320;2022-07-22T02:30:43;5.73;;;5.00;;
20038;SDS011;21737;42.868;25.320;2022-07-22T02:33:45;7.33;;;5.10;;
20038;SDS011;21737;42.868;25.320;2022-07-22T02:36:47;7.10;;;4.60;;
20038;SDS011;21737;42.868;25.320;2022-07-22T02:39:49;8.27;;;5.27;;
20038;SDS011;21737;42.868;25.320;2022-07-22T02:42:51;6.67;;;4.83;;
20038;SDS011;21737;42.868;25.320;2022-07-22T02:45:53;8.97;;;4.97;;
20038;SDS011;21737;42.868;25.320;2022-07-22T02:48:55;6.97;;;5.50;;
20038;SDS011;21737;42.868;25.320;2022-07-22T02:51:58;7.57;;;5.53;;
20038;SDS011;21737;42.868;25.320;2022-07-22T02:54:59;8.37;;;5.40;;
20038;SDS011;21737;42.868;25.320;2022-07-22T02:58:05;12.97;;;5.37;;
20038;SDS011;21737;42.868;25.320;2022-07-22T03:01:08;7.80;;;5.10;;
20038;SDS011;21737;42.868;25.320;2022-07-22T03:04:18;8.53;;;5.50;;
20038;SDS011;21737;42.868;25.320;2022-07-22T03:07:20;11.17;;;5.60;;
20038;SDS011;21737;42.868;25.320;2022-07-22T03:10:22;7.70;;;5.87;;
20038;SDS011;21737;42.868;25.320;2022-07-22T03:13:24;6.50;;;5.23;;
20038;SDS011;21737;42.868;25.320;2022-07-22T03:16:27;7.40;;;5.30;;
20038;SDS011;21737;42.868;25.320;2022-07-22T03:19:30;6.97;;;5.80;;
20038;SDS011;21737;42.868;25.320;2022-07-22T03:22:32;8.43;;;5.70;;
20038;SDS011;21737;42.868;25.320;2022-07-22T03:25:34;6.60;;;5.00;;
20038;SDS011;21737;42.868;25.320;2022-07-22T03:28:36;7.83;;;5.67;;
20038;SDS011;21737;42.868;25.320;2022-07-22T03:31:38;8.77;;;5.40;;
20038;SDS011;21737;42.868;25.320;2022-07-22T03:34:41;6.90;;;5.83;;
20038;SDS011;21737;42.868;25.320;2022-07-22T03:37:43;7.73;;;5.70;;
20038;SDS011;21737;42.868;25.320;2022-07-22T03:40:45;8.83;;;5.43;;
20038;SDS011;21737;42.868;25.320;2022-07-22T03:43:47;6.40;;;5.27;;
20038;SDS011;21737;42.868;25.320;2022-07-22T03:46:50;7.27;;;5.40;;
20038;SDS011;21737;42.868;25.320;2022-07-22T03:49:53;10.87;;;5.83;;
20038;SDS011;21737;42.868;25.320;2022-07-22T03:53:00;7.37;;;5.67;;
20038;SDS011;21737;42.868;25.320;2022-07-22T03:56:03;8.33;;;5.57;;
20038;SDS011;21737;42.868;25.320;2022-07-22T03:59:06;6.77;;;5.40;;
20038;SDS011;21737;42.868;25.320;2022-07-22T04:02:07;7.37;;;5.20;;
20038;SDS011;21737;42.868;25.320;2022-07-22T04:05:10;8.10;;;6.13;;
20038;SDS011;21737;42.868;25.320;2022-07-22T04:08:12;10.13;;;6.03;;
20038;SDS011;21737;42.868;25.320;2022-07-22T04:11:14;8.53;;;5.90;;
20038;SDS011;21737;42.868;25.320;2022-07-22T04:14:16;8.77;;;5.67;;
20038;SDS011;21737;42.868;25.320;2022-07-22T04:17:19;7.20;;;5.93;;
20038;SDS011;21737;42.868;25.320;2022-07-22T04:20:21;9.33;;;5.93;;
20038;SDS011;21737;42.868;25.320;2022-07-22T04:23:59;8.07;;;5.93;;
20038;SDS011;21737;42.868;25.320;2022-07-22T04:27:04;10.23;;;5.90;;
20038;SDS011;21737;42.868;25.320;2022-07-22T04:30:10;11.67;;;7.67;;
20038;SDS011;21737;42.868;25.320;2022-07-22T04:33:13;10.63;;;7.07;;
20038;SDS011;21737;42.868;25.320;2022-07-22T04:36:15;10.07;;;6.20;;
20038;SDS011;21737;42.868;25.320;2022-07-22T04:39:19;9.70;;;5.53;;
20038;SDS011;21737;42.868;25.320;2022-07-22T04:42:32;12.63;;;5.30;;
20038;SDS011;21737;42.868;25.320;2022-07-22T04:45:33;9.07;;;5.23;;
20038;SDS011;21737;42.868;25.320;2022-07-22T04:48:36;8.30;;;5.53;;
20038;SDS011;21737;42.868;25.320;2022-07-22T04:51:37;9.70;;;6.00;;
20038;SDS011;21737;42.868;25.320;2022-07-22T04:54:42;7.67;;;5.50;;
20038;SDS011;21737;42.868;25.320;2022-07-22T04:57:44;8.77;;;5.23;;
20038;SDS011;21737;42.868;25.320;2022-07-22T05:00:47;10.57;;;5.87;;
20038;SDS011;21737;42.868;25.320;2022-07-22T05:03:49;15.73;;;6.00;;
20038;SDS011;21737;42.868;25.320;2022-07-22T05:06:53;13.60;;;6.60;;
20038;SDS011;21737;42.868;25.320;2022-07-22T05:09:56;10.77;;;5.40;;
20038;SDS011;21737;42.868;25.320;2022-07-22T05:12:58;6.80;;;5.50;;
20038;SDS011;21737;42.868;25.320;2022-07-22T05:16:04;9.20;;;5.23;;
20038;SDS011;21737;42.868;25.320;2022-07-22T05:19:08;10.83;;;5.73;;
20038;SDS011;21737;42.868;25.320;2022-07-22T05:22:12;10.20;;;5.90;;
20038;SDS011;21737;42.868;25.320;2022-07-22T05:25:14;10.73;;;6.27;;
20038;SDS011;21737;42.868;25.320;2022-07-22T05:28:16;10.60;;;6.00;;
20038;SDS011;21737;42.868;25.320;2022-07-22T05:31:19;16.20;;;6.47;;
20038;SDS011;21737;42.868;25.320;2022-07-22T05:34:20;14.47;;;6.57;;
20038;SDS011;21737;42.868;25.320;2022-07-22T05:37:26;15.53;;;6.97;;
20038;SDS011;21737;42.868;25.320;2022-07-22T05:40:29;25.27;;;7.10;;
20038;SDS011;21737;42.868;25.320;2022-07-22T05:43:31;20.40;;;8.90;;
20038;SDS011;21737;42.868;25.320;2022-07-22T05:46:35;21.57;;;7.40;;
20038;SDS011;21737;42.868;25.320;2022-07-22T05:49:37;16.63;;;7.07;;
20038;SDS011;21737;42.868;25.320;2022-07-22T05:52:46;9.77;;;5.07;;
20038;SDS011;21737;42.868;25.320;2022-07-22T05:55:48;13.13;;;5.10;;
20038;SDS011;21737;42.868;25.320;2022-07-22T05:58:49;20.08;;;15.32;;
20038;SDS011;21737;42.868;25.320;2022-07-22T06:01:53;11.02;;;5.95;;
20038;SDS011;21737;42.868;25.320;2022-07-22T06:05:12;6.28;;;5.07;;
20038;SDS011;21737;42.868;25.320;2022-07-22T06:08:34;6.85;;;4.50;;
20038;SDS011;21737;42.868;25.320;2022-07-22T06:11:36;10.52;;;4.82;;
20038;SDS011;21737;42.868;25.320;2022-07-22T06:14:38;10.45;;;4.80;;
20038;SDS011;21737;42.868;25.320;2022-07-22T06:17:40;33.58;;;8.13;;
20038;SDS011;21737;42.868;25.320;2022-07-22T06:20:43;11.05;;;6.00;;
20038;SDS011;21737;42.868;25.320;2022-07-22T06:23:45;23.58;;;7.43;;
20038;SDS011;21737;42.868;25.320;2022-07-22T06:26:46;43.60;;;22.10;;
20038;SDS011;21737;42.868;25.320;2022-07-22T06:29:49;35.47;;;18.02;;
20038;SDS011;21737;42.868;25.320;2022-07-22T06:32:51;9.77;;;6.32;;
20038;SDS011;21737;42.868;25.320;2022-07-22T06:35:57;9.77;;;5.43;;
20038;SDS011;21737;42.868;25.320;2022-07-22T06:39:01;7.72;;;5.35;;
20038;SDS011;21737;42.868;25.320;2022-07-22T06:42:37;11.18;;;6.50;;
20038;SDS011;21737;42.868;25.320;2022-07-22T06:45:58;9.55;;;5.80;;
20038;SDS011;21737;42.868;25.320;2022-07-22T06:49:18;10.38;;;5.30;;
20038;SDS011;21737;42.868;25.320;2022-07-22T06:52:20;6.07;;;4.63;;
20038;SDS011;21737;42.868;25.320;2022-07-22T06:55:21;7.68;;;5.10;;
20038;SDS011;21737;42.868;25.320;2022-07-22T06:58:33;8.93;;;5.13;;
20038;SDS011;21737;42.868;25.320;2022-07-22T07:01:35;9.55;;;6.00;;
20038;SDS011;21737;42.868;25.320;2022-07-22T07:04:37;9.00;;;5.18;;
20038;SDS011;21737;42.868;25.320;2022-07-22T07:07:39;12.02;;;5.50;;
20038;SDS011;21737;42.868;25.320;2022-07-22T07:10:42;7.78;;;5.57;;
20038;SDS011;21737;42.868;25.320;2022-07-22T07:13:47;6.95;;;4.68;;
20038;SDS011;21737;42.868;25.320;2022-07-22T07:16:49;9.70;;;5.45;;
20038;SDS011;21737;42.868;25.320;2022-07-22T07:19:51;5.78;;;4.65;;
20038;SDS011;21737;42.868;25.320;2022-07-22T07:22:52;12.55;;;4.90;;
20038;SDS011;21737;42.868;25.320;2022-07-22T07:25:55;7.68;;;5.47;;
20038;SDS011;21737;42.868;25.320;2022-07-22T07:28:57;9.15;;;5.53;;
20038;SDS011;21737;42.868;25.320;2022-07-22T07:32:04;8.40;;;5.55;;
20038;SDS011;21737;42.868;25.320;2022-07-22T07:35:06;6.85;;;5.63;;
20038;SDS011;21737;42.868;25.320;2022-07-22T07:38:08;11.68;;;5.50;;
20038;SDS011;21737;42.868;25.320;2022-07-22T07:41:13;8.13;;;5.35;;
20038;SDS011;21737;42.868;25.320;2022-07-22T07:44:18;8.07;;;6.03;;
20038;SDS011;21737;42.868;25.320;2022-07-22T07:47:19;10.27;;;5.80;;
20038;SDS011;21737;42.868;25.320;2022-07-22T07:50:23;7.13;;;5.20;;
20038;SDS011;21737;42.868;25.320;2022-07-22T07:53:25;9.40;;;5.40;;
20038;SDS011;21737;42.868;25.320;2022-07-22T07:56:28;7.68;;;5.28;;
20038;SDS011;21737;42.868;25.320;2022-07-22T07:59:30;8.70;;;5.57;;
20038;SDS011;21737;42.868;25.320;2022-07-22T08:02:35;7.13;;;5.70;;
20038;SDS011;21737;42.868;25.320;2022-07-22T08:05:39;7.90;;;5.43;;
20038;SDS011;21737;42.868;25.320;2022-07-22T08:08:55;6.90;;;5.45;;
20038;SDS011;21737;42.868;25.320;2022-07-22T08:12:06;10.02;;;6.35;;
20038;SDS011;21737;42.868;25.320;2022-07-22T08:15:28;9.73;;;6.40;;
20038;SDS011;21737;42.868;25.320;2022-07-22T08:18:30;7.68;;;5.68;;
20038;SDS011;21737;42.868;25.320;2022-07-22T08:21:32;9.15;;;5.18;;
20038;SDS011;21737;42.868;25.320;2022-07-22T08:24:50;11.70;;;6.00;;
20038;SDS011;21737;42.868;25.320;2022-07-22T08:27:54;8.32;;;5.80;;
20038;SDS011;21737;42.868;25.320;2022-07-22T08:30:56;12.00;;;5.90;;
20038;SDS011;21737;42.868;25.320;2022-07-22T08:33:58;8.82;;;5.43;;
20038;SDS011;21737;42.868;25.320;2022-07-22T08:37:01;13.80;;;5.68;;
20038;SDS011;21737;42.868;25.320;2022-07-22T08:40:04;6.97;;;5.45;;
20038;SDS011;21737;42.868;25.320;2022-07-22T08:43:08;14.27;;;5.85;;
20038;SDS011;21737;42.868;25.320;2022-07-22T08:46:10;10.48;;;5.50;;
20038;SDS011;21737;42.868;25.320;2022-07-22T08:49:34;10.27;;;5.75;;
20038;SDS011;21737;42.868;25.320;2022-07-22T08:52:59;7.97;;;5.85;;
20038;SDS011;21737;42.868;25.320;2022-07-22T08:56:01;11.88;;;5.53;;
20038;SDS011;21737;42.868;25.320;2022-07-22T08:59:03;6.43;;;5.20;;
20038;SDS011;21737;42.868;25.320;2022-07-22T09:02:07;11.52;;;5.78;;
20038;SDS011;21737;42.868;25.320;2022-07-22T09:05:12;9.07;;;5.72;;
20038;SDS011;21737;42.868;25.320;2022-07-22T09:08:58;10.15;;;7.30;;
20038;SDS011;21737;42.868;25.320;2022-07-22T09:12:19;8.57;;;5.72;;
20038;SDS011;21737;42.868;25.320;2022-07-22T09:15:53;8.30;;;5.30;;
20038;SDS011;21737;42.868;25.320;2022-07-22T09:19:31;7.65;;;5.45;;
20038;SDS011;21737;42.868;25.320;2022-07-22T09:22:53;7.95;;;5.57;;
20038;SDS011;21737;42.868;25.320;2022-07-22T09:25:58;11.45;;;5.90;;
20038;SDS011;21737;42.868;25.320;2022-07-22T09:29:21;14.18;;;12.63;;
20038;SDS011;21737;42.868;25.320;2022-07-22T09:32:42;7.93;;;5.00;;
20038;SDS011;21737;42.868;25.320;2022-07-22T09:36:04;5.78;;;4.97;;
20038;SDS011;21737;42.868;25.320;2022-07-22T09:39:29;8.30;;;5.88;;
20038;SDS011;21737;42.868;25.320;2022-07-22T09:42:43;8.48;;;5.68;;
20038;SDS011;21737;42.868;25.320;2022-07-22T09:48:46;8.68;;;5.40;;
20038;SDS011;21737;42.868;25.320;2022-07-22T09:52:08;8.45;;;5.20;;
20038;SDS011;21737;42.868;25.320;2022-07-22T09:55:27;14.82;;;10.32;;
20038;SDS011;21737;42.868;25.320;2022-07-22T09:58:30;14.88;;;9.27;;
20038;SDS011;21737;42.868;25.320;2022-07-22T10:01:32;11.02;;;5.47;;
20038;SDS011;21737;42.868;25.320;2022-07-22T10:04:34;9.90;;;5.80;;
20038;SDS011;21737;42.868;25.320;2022-07-22T10:07:43;5.35;;;4.85;;
20038;SDS011;21737;42.868;25.320;2022-07-22T10:10:46;8.38;;;4.93;;
20038;SDS011;21737;42.868;25.320;2022-07-22T10:13:48;9.32;;;5.50;;
20038;SDS011;21737;42.868;25.320;2022-07-22T10:16:50;12.43;;;5.63;;
20038;SDS011;21737;42.868;25.320;2022-07-22T10:19:52;8.88;;;5.47;;
20038;SDS011;21737;42.868;25.320;2022-07-22T10:22:58;8.93;;;4.80;;
20038;SDS011;21737;42.868;25.320;2022-07-22T10:26:04;6.43;;;4.88;;
20038;SDS011;21737;42.868;25.320;2022-07-22T10:29:23;7.32;;;5.50;;
20038;SDS011;21737;42.868;25.320;2022-07-22T10:32:25;6.90;;;5.45;;
20038;SDS011;21737;42.868;25.320;2022-07-22T10:35:29;9.30;;;5.60;;
20038;SDS011;21737;42.868;25.320;2022-07-22T10:38:36;5.80;;;4.68;;
20038;SDS011;21737;42.868;25.320;2022-07-22T10:41:39;6.05;;;5.07;;
20038;SDS011;21737;42.868;25.320;2022-07-22T10:44:48;8.93;;;5.82;;
20038;SDS011;21737;42.868;25.320;2022-07-22T10:47:59;8.25;;;5.15;;
20038;SDS011;21737;42.868;25.320;2022-07-22T10:54:05;10.30;;;4.70;;
20038;SDS011;21737;42.868;25.320;2022-07-22T10:57:07;7.80;;;4.68;;
20038;SDS011;21737;42.868;25.320;2022-07-22T11:00:08;13.38;;;5.03;;
20038;SDS011;21737;42.868;25.320;2022-07-22T11:03:10;6.03;;;4.60;;
20038;SDS011;21737;42.868;25.320;2022-07-22T11:06:27;6.80;;;4.10;;
20038;SDS011;21737;42.868;25.320;2022-07-22T11:09:33;9.82;;;4.50;;
20038;SDS011;21737;42.868;25.320;2022-07-22T11:12:35;7.68;;;4.85;;
20038;SDS011;21737;42.868;25.320;2022-07-22T11:15:37;6.57;;;4.35;;
20038;SDS011;21737;42.868;25.320;2022-07-22T11:18:50;5.65;;;3.97;;
20038;SDS011;21737;42.868;25.320;2022-07-22T11:21:55;9.57;;;4.57;;
20038;SDS011;21737;42.868;25.320;2022-07-22T11:24:59;8.75;;;4.30;;
20038;SDS011;21737;42.868;25.320;2022-07-22T11:28:01;8.35;;;4.40;;
20038;SDS011;21737;42.868;25.320;2022-07-22T11:31:14;7.15;;;4.43;;
20038;SDS011;21737;42.868;25.320;2022-07-22T11:34:16;12.05;;;4.80;;
20038;SDS011;21737;42.868;25.320;2022-07-22T11:37:20;4.78;;;4.10;;
20038;SDS011;21737;42.868;25.320;2022-07-22T11:40:30;6.72;;;4.60;;
20038;SDS011;21737;42.868;25.320;2022-07-22T11:43:41;5.78;;;4.45;;
20038;SDS011;21737;42.868;25.320;2022-07-22T11:46:43;16.52;;;4.82;;
20038;SDS011;21737;42.868;25.320;2022-07-22T11:49:46;6.95;;;4.63;;
20038;SDS011;21737;42.868;25.320;2022-07-22T11:52:52;6.18;;;4.07;;
20038;SDS011;21737;42.868;25.320;2022-07-22T11:55:57;6.15;;;4.03;;
20038;SDS011;21737;42.868;25.320;2022-07-22T11:58:59;6.22;;;4.25;;
20038;SDS011;21737;42.868;25.320;2022-07-22T12:02:06;8.90;;;4.65;;
20038;SDS011;21737;42.868;25.320;2022-07-22T12:05:10;6.43;;;4.47;;
20038;SDS011;21737;42.868;25.320;2022-07-22T12:08:32;5.85;;;4.35;;
20038;SDS011;21737;42.868;25.320;2022-07-22T12:11:37;6.97;;;4.85;;
20038;SDS011;21737;42.868;25.320;2022-07-22T12:14:44;6.18;;;4.30;;
20038;SDS011;21737;42.868;25.320;2022-07-22T12:17:48;8.27;;;4.75;;
20038;SDS011;21737;42.868;25.320;2022-07-22T12:20:51;8.85;;;4.97;;
20038;SDS011;21737;42.868;25.320;2022-07-22T12:27:16;5.72;;;4.50;;
20038;SDS011;21737;42.868;25.320;2022-07-22T12:30:18;13.32;;;4.40;;
20038;SDS011;21737;42.868;25.320;2022-07-22T12:33:20;5.03;;;4.07;;
20038;SDS011;21737;42.868;25.320;2022-07-22T12:36:22;7.20;;;4.20;;
20038;SDS011;21737;42.868;25.320;2022-07-22T12:39:34;11.80;;;4.57;;
20038;SDS011;21737;42.868;25.320;2022-07-22T12:43:10;8.98;;;3.60;;
20038;SDS011;21737;42.868;25.320;2022-07-22T12:46:05;6.45;;;3.72;;
20038;SDS011;21737;42.868;25.320;2022-07-22T12:49:06;7.15;;;4.03;;
20038;SDS011;21737;42.868;25.320;2022-07-22T12:52:13;6.85;;;4.05;;
20038;SDS011;21737;42.868;25.320;2022-07-22T12:55:15;8.15;;;3.92;;
20038;SDS011;21737;42.868;25.320;2022-07-22T12:58:17;5.47;;;3.75;;
20038;SDS011;21737;42.868;25.320;2022-07-22T13:01:21;4.65;;;3.70;;
20038;SDS011;21737;42.868;25.320;2022-07-22T13:04:23;8.82;;;3.85;;
20038;SDS011;21737;42.868;25.320;2022-07-22T13:07:24;8.73;;;3.80;;
20038;SDS011;21737;42.868;25.320;2022-07-22T13:10:26;10.02;;;4.25;;
20038;SDS011;21737;42.868;25.320;2022-07-22T13:13:28;8.90;;;3.50;;
20038;SDS011;21737;42.868;25.320;2022-07-22T13:16:29;6.82;;;3.95;;
20038;SDS011;21737;42.868;25.320;2022-07-22T13:19:31;6.80;;;4.07;;
20038;SDS011;21737;42.868;25.320;2022-07-22T13:22:33;7.72;;;3.60;;
20038;SDS011;21737;42.868;25.320;2022-07-22T13:25:35;5.68;;;3.45;;
20038;SDS011;21737;42.868;25.320;2022-07-22T13:28:37;18.10;;;3.83;;
20038;SDS011;21737;42.868;25.320;2022-07-22T13:31:38;6.38;;;3.30;;
20038;SDS011;21737;42.868;25.320;2022-07-22T13:35:00;7.22;;;3.55;;
20038;SDS011;21737;42.868;25.320;2022-07-22T13:38:02;8.85;;;3.92;;
20038;SDS011;21737;42.868;25.320;2022-07-22T13:41:05;6.00;;;4.05;;
20038;SDS011;21737;42.868;25.320;2022-07-22T13:44:18;11.48;;;3.63;;
20038;SDS011;21737;42.868;25.320;2022-07-22T13:47:20;5.78;;;3.63;;
20038;SDS011;21737;42.868;25.320;2022-07-22T13:50:22;5.32;;;4.07;;
20038;SDS011;21737;42.868;25.320;2022-07-22T13:53:23;6.90;;;3.50;;
20038;SDS011;21737;42.868;25.320;2022-07-22T13:56:25;5.68;;;3.60;;
20038;SDS011;21737;42.868;25.320;2022-07-22T13:59:27;8.65;;;4.10;;
20038;SDS011;21737;42.868;25.320;2022-07-22T14:02:30;6.15;;;3.78;;
20038;SDS011;21737;42.868;25.320;2022-07-22T14:05:32;5.45;;;3.00;;
20038;SDS011;21737;42.868;25.320;2022-07-22T14:08:33;4.22;;;3.50;;
20038;SDS011;21737;42.868;25.320;2022-07-22T14:11:35;4.10;;;3.10;;
20038;SDS011;21737;42.868;25.320;2022-07-22T14:14:37;7.60;;;3.40;;
20038;SDS011;21737;42.868;25.320;2022-07-22T14:17:39;7.43;;;3.60;;
20038;SDS011;21737;42.868;25.320;2022-07-22T14:20:41;6.72;;;3.28;;
20038;SDS011;21737;42.868;25.320;2022-07-22T14:23:42;7.38;;;3.40;;
20038;SDS011;21737;42.868;25.320;2022-07-22T14:26:44;7.70;;;3.50;;
20038;SDS011;21737;42.868;25.320;2022-07-22T14:29:46;6.38;;;3.50;;
20038;SDS011;21737;42.868;25.320;2022-07-22T14:32:48;5.57;;;3.45;;
20038;SDS011;21737;42.868;25.320;2022-07-22T14:35:49;7.55;;;3.95;;
20038;SDS011;21737;42.868;25.320;2022-07-22T14:38:51;6.90;;;3.55;;
20038;SDS011;21737;42.868;25.320;2022-07-22T14:41:54;6.45;;;3.90;;
20038;SDS011;21737;42.868;25.320;2022-07-22T14:44:56;5.25;;;3.40;;
20038;SDS011;21737;42.868;25.320;2022-07-22T14:47:58;3.70;;;3.40;;
20038;SDS011;21737;42.868;25.320;2022-07-22T14:51:00;8.77;;;3.72;;
20038;SDS011;21737;42.868;25.320;2022-07-22T14:54:01;6.72;;;3.83;;
20038;SDS011;21737;42.868;25.320;2022-07-22T14:57:03;13.13;;;3.70;;
20038;SDS011;21737;42.868;25.320;2022-07-22T15:00:05;6.55;;;3.88;;
20038;SDS011;21737;42.868;25.320;2022-07-22T15:03:07;14.55;;;4.00;;
20038;SDS011;21737;42.868;25.320;2022-07-22T15:06:09;8.52;;;3.30;;
20038;SDS011;21737;42.868;25.320;2022-07-22T15:09:11;7.03;;;3.50;;
20038;SDS011;21737;42.868;25.320;2022-07-22T15:12:12;8.63;;;3.45;;
20038;SDS011;21737;42.868;25.320;2022-07-22T15:15:34;6.97;;;3.40;;
20038;SDS011;21737;42.868;25.320;2022-07-22T15:18:37;6.13;;;3.33;;
20038;SDS011;21737;42.868;25.320;2022-07-22T15:21:38;4.05;;;3.33;;
20038;SDS011;21737;42.868;25.320;2022-07-22T15:24:40;8.43;;;4.00;;
20038;SDS011;21737;42.868;25.320;2022-07-22T15:27:42;7.57;;;3.42;;
20038;SDS011;21737;42.868;25.320;2022-07-22T15:30:43;6.72;;;3.55;;
20038;SDS011;21737;42.868;25.320;2022-07-22T15:33:45;11.18;;;3.50;;
20038;SDS011;21737;42.868;25.320;2022-07-22T15:36:47;7.15;;;3.95;;
20038;SDS011;21737;42.868;25.320;2022-07-22T15:39:48;5.85;;;3.55;;
20038;SDS011;21737;42.868;25.320;2022-07-22T15:42:50;8.32;;;3.35;;
20038;SDS011;21737;42.868;25.320;2022-07-22T15:45:52;4.72;;;3.38;;
20038;SDS011;21737;42.868;25.320;2022-07-22T15:48:54;6.20;;;3.80;;
20038;SDS011;21737;42.868;25.320;2022-07-22T15:51:55;7.60;;;3.70;;
20038;SDS011;21737;42.868;25.320;2022-07-22T15:54:57;6.03;;;3.47;;
20038;SDS011;21737;42.868;25.320;2022-07-22T15:57:59;5.55;;;3.58;;
20038;SDS011;21737;42.868;25.320;2022-07-22T16:01:19;8.85;;;3.63;;
20038;SDS011;21737;42.868;25.320;2022-07-22T16:04:21;9.35;;;4.25;;
20038;SDS011;21737;42.868;25.320;2022-07-22T16:07:23;9.38;;;4.32;;
20038;SDS011;21737;42.868;25.320;2022-07-22T16:10:25;7.45;;;4.25;;
20038;SDS011;21737;42.868;25.320;2022-07-22T16:13:27;6.43;;;3.58;;
20038;SDS011;21737;42.868;25.320;2022-07-22T16:16:29;6.80;;;4.18;;
20038;SDS011;21737;42.868;25.320;2022-07-22T16:19:31;7.00;;;3.25;;
20038;SDS011;21737;42.868;25.320;2022-07-22T16:22:33;9.27;;;4.43;;
20038;SDS011;21737;42.868;25.320;2022-07-22T16:25:35;6.95;;;3.85;;
20038;SDS011;21737;42.868;25.320;2022-07-22T16:28:36;6.95;;;4.00;;
20038;SDS011;21737;42.868;25.320;2022-07-22T16:31:44;9.05;;;3.90;;
20038;SDS011;21737;42.868;25.320;2022-07-22T16:34:47;11.48;;;3.75;;
20038;SDS011;21737;42.868;25.320;2022-07-22T16:37:49;9.00;;;4.15;;
20038;SDS011;21737;42.868;25.320;2022-07-22T16:40:50;11.88;;;4.70;;
20038;SDS011;21737;42.868;25.320;2022-07-22T16:43:52;7.20;;;4.07;;
20038;SDS011;21737;42.868;25.320;2022-07-22T16:46:54;7.38;;;4.32;;
20038;SDS011;21737;42.868;25.320;2022-07-22T16:49:56;8.02;;;4.07;;
20038;SDS011;21737;42.868;25.320;2022-07-22T16:52:57;10.32;;;4.13;;
20038;SDS011;21737;42.868;25.320;2022-07-22T16:55:59;10.77;;;5.32;;
20038;SDS011;21737;42.868;25.320;2022-07-22T16:59:01;8.52;;;4.78;;
20038;SDS011;21737;42.868;25.320;2022-07-22T17:02:03;9.63;;;4.63;;
20038;SDS011;21737;42.868;25.320;2022-07-22T17:05:05;9.65;;;4.78;;
20038;SDS011;21737;42.868;25.320;2022-07-22T17:08:07;8.13;;;5.13;;
20038;SDS011;21737;42.868;25.320;2022-07-22T17:11:08;9.70;;;5.78;;
20038;SDS011;21737;42.868;25.320;2022-07-22T17:14:10;8.77;;;6.22;;
20038;SDS011;21737;42.868;25.320;2022-07-22T17:17:12;14.73;;;7.88;;
20038;SDS011;21737;42.868;25.320;2022-07-22T17:20:13;10.73;;;6.78;;
20038;SDS011;21737;42.868;25.320;2022-07-22T17:23:15;13.45;;;7.80;;
20038;SDS011;21737;42.868;25.320;2022-07-22T17:26:17;18.38;;;9.48;;
20038;SDS011;21737;42.868;25.320;2022-07-22T17:29:19;19.65;;;9.45;;
20038;SDS011;21737;42.868;25.320;2022-07-22T17:32:21;25.23;;;11.00;;
20038;SDS011;21737;42.868;25.320;2022-07-22T17:35:22;28.10;;;11.85;;
20038;SDS011;21737;42.868;25.320;2022-07-22T17:38:24;24.20;;;12.07;;
20038;SDS011;21737;42.868;25.320;2022-07-22T17:41:26;10.13;;;6.25;;
20038;SDS011;21737;42.868;25.320;2022-07-22T17:44:27;6.63;;;3.90;;
20038;SDS011;21737;42.868;25.320;2022-07-22T17:47:29;6.32;;;3.42;;
20038;SDS011;21737;42.868;25.320;2022-07-22T17:50:31;7.82;;;4.05;;
20038;SDS011;21737;42.868;25.320;2022-07-22T17:53:39;8.97;;;4.10;;
20038;SDS011;21737;42.868;25.320;2022-07-22T17:56:41;10.03;;;4.43;;
20038;SDS011;21737;42.868;25.320;2022-07-22T17:59:43;16.00;;;4.60;;
20038;SDS011;21737;42.868;25.320;2022-07-22T18:02:44;6.60;;;3.60;;
20038;SDS011;21737;42.868;25.320;2022-07-22T18:05:46;5.40;;;3.87;;
20038;SDS011;21737;42.868;25.320;2022-07-22T18:08:51;4.60;;;3.53;;
20038;SDS011;21737;42.868;25.320;2022-07-22T18:11:52;10.30;;;3.87;;
20038;SDS011;21737;42.868;25.320;2022-07-22T18:14:54;6.93;;;3.70;;
20038;SDS011;21737;42.868;25.320;2022-07-22T18:17:56;5.83;;;3.57;;
20038;SDS011;21737;42.868;25.320;2022-07-22T18:20:58;7.77;;;4.03;;